Time;durP1;ratioP1;P1;durP2;ratioP2;P2;SDS_P1;SDS_P2;PMS_P1;PMS_P2;Temp;Humidity;BMP_temperature;BMP_pressure;BME280_temperature;BME280_humidity;BME280_pressure;Samples;Min_cycle;Max_cycle;Signal;HPM_P1;HPM_P2
2024/04/18 00:00:43;;;;;;;1.55;0.65;;;5.80;99.90;;;;;;5426743;26;20602;-75
2024/04/18 00:03:10;;;;;;;1.92;0.60;;;5.80;99.90;;;;;;5403988;26;20006;-75
2024/04/18 00:05:36;;;;;;;1.50;0.63;;;5.70;99.90;;;;;;5408553;26;20087;-76
2024/04/18 00:08:03;;;;;;;2.17;0.60;;;5.70;99.90;;;;;;5438026;26;20006;-75
2024/04/18 00:10:30;;;;;;;1.13;0.50;;;5.70;99.90;;;;;;5364417;26;20469;-76
2024/04/18 00:12:56;;;;;;;1.33;0.60;;;5.70;99.90;;;;;;5395663;26;20931;-76
2024/04/18 00:15:23;;;;;;;1.65;0.70;;;5.70;99.90;;;;;;5391349;26;20010;-75
2024/04/18 00:17:56;;;;;;;2.00;0.60;;;5.70;99.90;;;;;;5422559;26;20057;-75
2024/04/18 00:20:23;;;;;;;2.53;0.60;;;5.70;99.90;;;;;;5368559;26;20005;-75
2024/04/18 00:22:49;;;;;;;1.90;0.95;;;5.70;99.90;;;;;;5409251;26;20002;-74
2024/04/18 00:25:16;;;;;;;1.73;0.60;;;5.70;99.90;;;;;;5402213;26;20023;-74
2024/04/18 00:27:53;;;;;;;1.00;0.50;;;5.70;99.90;;;;;;5474013;25;20450;-75
2024/04/18 00:30:40;;;;;;;1.52;0.60;;;5.70;99.90;;;;;;5396544;26;20427;-75
2024/04/18 00:33:06;;;;;;;1.52;0.70;;;5.70;99.90;;;;;;5424990;26;20010;-75
2024/04/18 00:35:39;;;;;;;1.50;0.63;;;5.70;99.90;;;;;;5391052;26;19998;-74
2024/04/18 00:38:13;;;;;;;1.75;0.50;;;5.70;99.90;;;;;;5429129;26;20480;-74
2024/04/18 00:40:44;;;;;;;1.00;0.50;;;5.70;99.90;;;;;;5408156;26;20010;-76
2024/04/18 00:43:21;;;;;;;1.65;0.65;;;5.70;99.90;;;;;;5437387;26;20006;-76
2024/04/18 00:45:52;;;;;;;1.05;0.60;;;5.70;99.90;;;;;;5390930;26;20025;-75
2024/04/18 00:48:25;;;;;;;2.42;1.10;;;5.70;99.90;;;;;;5366639;26;20577;-75
2024/04/18 00:50:55;;;;;;;1.27;0.50;;;5.60;99.90;;;;;;5393354;26;20009;-75
2024/04/18 00:53:24;;;;;;;1.23;0.50;;;5.60;99.90;;;;;;5421827;26;20003;-75
2024/04/18 00:55:52;;;;;;;1.67;0.63;;;5.60;99.90;;;;;;5422467;26;20002;-76
2024/04/18 00:58:38;;;;;;;2.00;0.57;;;5.50;99.90;;;;;;5437520;26;20002;-75
2024/04/18 01:01:22;;;;;;;1.33;0.50;;;5.50;99.90;;;;;;5411224;26;20002;-75
2024/04/18 01:03:55;;;;;;;0.88;0.50;;;5.40;99.90;;;;;;5377989;26;20455;-75
2024/04/18 01:06:44;;;;;;;1.75;0.65;;;5.40;99.90;;;;;;5422050;26;20024;-75
2024/04/18 01:09:15;;;;;;;2.00;0.50;;;5.30;99.90;;;;;;5421986;26;20016;-75
2024/04/18 01:12:02;;;;;;;1.38;0.50;;;5.30;99.90;;;;;;5396298;26;20006;-75
2024/04/18 01:14:29;;;;;;;1.63;0.43;;;5.20;99.90;;;;;;5394262;26;20002;-76
2024/04/18 01:17:03;;;;;;;0.73;0.40;;;5.10;99.90;;;;;;5426542;26;20008;-75
2024/04/18 01:19:30;;;;;;;3.22;0.60;;;5.00;99.90;;;;;;5435465;26;20016;-74
2024/04/18 01:21:57;;;;;;;2.65;0.57;;;4.90;99.90;;;;;;5439678;26;20020;-75
2024/04/18 01:24:23;;;;;;;1.10;0.50;;;4.90;99.90;;;;;;5426816;26;20012;-75
2024/04/18 01:26:50;;;;;;;1.95;0.50;;;4.80;99.90;;;;;;5391451;26;20452;-75
2024/04/18 01:29:17;;;;;;;1.73;0.50;;;4.80;99.90;;;;;;5422803;26;20002;-76
2024/04/18 01:32:02;;;;;;;1.25;0.52;;;4.70;99.90;;;;;;5404115;26;20002;-75
2024/04/18 01:34:28;;;;;;;5.13;0.50;;;4.60;99.90;;;;;;5416853;26;19998;-75
2024/04/18 01:37:15;;;;;;;1.08;0.40;;;4.60;99.90;;;;;;5433974;26;20006;-76
2024/04/18 01:39:43;;;;;;;1.35;0.40;;;4.50;99.90;;;;;;5442928;26;20552;-75
2024/04/18 01:42:10;;;;;;;2.03;0.40;;;4.50;99.90;;;;;;5434763;26;20013;-75
2024/04/18 01:44:46;;;;;;;2.75;0.90;;;4.50;99.90;;;;;;5424215;26;20032;-75
2024/04/18 01:47:33;;;;;;;1.10;0.50;;;4.50;99.90;;;;;;5422109;26;20016;-76
2024/04/18 01:50:10;;;;;;;1.10;0.40;;;4.40;99.90;;;;;;5391847;26;20075;-75
2024/04/18 01:52:37;;;;;;;2.72;0.45;;;4.40;99.90;;;;;;5424038;26;20006;-75
2024/04/18 01:55:05;;;;;;;2.92;0.43;;;4.30;99.90;;;;;;5366290;26;20070;-75
2024/04/18 01:57:40;;;;;;;1.58;0.40;;;4.30;99.90;;;;;;5435522;26;19999;-75
2024/04/18 02:00:25;;;;;;;2.53;0.50;;;4.20;99.90;;;;;;5439188;26;20099;-75
2024/04/18 02:02:51;;;;;;;1.52;0.47;;;4.20;99.90;;;;;;5453782;26;20020;-75
2024/04/18 02:05:36;;;;;;;2.45;0.40;;;4.20;99.90;;;;;;5424149;26;20006;-76
2024/04/18 02:08:16;;;;;;;3.55;0.60;;;4.20;99.90;;;;;;5422584;26;20013;-75
2024/04/18 02:10:48;;;;;;;1.08;0.35;;;4.10;99.90;;;;;;5421643;26;21170;-75
2024/04/18 02:13:34;;;;;;;1.25;0.55;;;4.10;99.90;;;;;;5425863;26;19998;-75
2024/04/18 02:16:03;;;;;;;1.40;0.50;;;4.00;99.90;;;;;;5431167;26;20024;-76
2024/04/18 02:18:46;;;;;;;2.58;0.60;;;4.00;99.90;;;;;;5407321;26;20454;-76
2024/04/18 02:21:13;;;;;;;2.90;0.80;;;4.00;99.90;;;;;;5398641;26;20006;-76
2024/04/18 02:23:53;;;;;;;2.72;0.80;;;3.90;99.90;;;;;;5423132;26;20437;-76
2024/04/18 02:26:19;;;;;;;1.30;0.50;;;3.90;99.90;;;;;;5391123;26;20069;-76
2024/04/18 02:28:46;;;;;;;2.08;0.93;;;3.90;99.90;;;;;;5361681;26;20004;-76
2024/04/18 02:31:18;;;;;;;;;;;3.80;99.90;;;;;;5394694;26;20002;-76
2024/04/18 02:33:53;;;;;;;2.55;0.60;;;3.80;99.90;;;;;;5400332;26;19931;-76
2024/04/18 02:36:20;;;;;;;1.97;0.50;;;3.70;99.90;;;;;;5438017;26;20006;-75
2024/04/18 02:38:47;;;;;;;2.00;0.50;;;3.70;99.90;;;;;;5430860;26;20006;-76
2024/04/18 02:41:13;;;;;;;2.22;0.80;;;3.70;99.90;;;;;;5394589;26;20004;-75
2024/04/18 02:43:54;;;;;;;3.83;0.75;;;3.60;99.90;;;;;;5391844;26;20009;-76
2024/04/18 02:46:23;;;;;;;3.97;0.75;;;3.60;99.90;;;;;;5447847;26;20447;-76
2024/04/18 02:49:08;;;;;;;3.42;0.60;;;3.60;99.90;;;;;;5424820;26;20902;-75
2024/04/18 02:51:55;;;;;;;1.88;0.63;;;3.60;99.90;;;;;;5430192;26;20013;-74
2024/04/18 02:54:40;;;;;;;1.63;0.50;;;3.60;99.90;;;;;;5409923;26;20005;-74
2024/04/18 02:57:06;;;;;;;1.40;0.60;;;3.60;99.90;;;;;;5428758;26;20547;-74
2024/04/18 02:59:32;;;;;;;2.90;0.50;;;3.50;99.90;;;;;;5361108;26;20002;-75
2024/04/18 03:02:19;;;;;;;5.00;0.80;;;3.50;99.90;;;;;;5417070;26;21192;-74
2024/04/18 03:04:45;;;;;;;1.77;0.70;;;3.50;99.90;;;;;;5390386;26;20298;-75
2024/04/18 03:07:12;;;;;;;2.63;0.87;;;3.50;99.90;;;;;;5390956;26;20450;-75
2024/04/18 03:09:48;;;;;;;2.58;0.73;;;3.40;99.90;;;;;;5422680;26;19998;-75
2024/04/18 03:12:26;;;;;;;2.20;0.60;;;3.40;99.90;;;;;;5411253;26;20020;-75
2024/04/18 03:15:09;;;;;;;2.33;0.70;;;3.40;99.90;;;;;;5383322;26;19998;-76
2024/04/18 03:18:02;;;;;;;2.90;0.60;;;3.40;99.90;;;;;;5402672;26;20002;-75
2024/04/18 03:20:34;;;;;;;4.28;1.00;;;3.30;99.90;;;;;;5448445;25;20486;-76
2024/04/18 03:23:09;;;;;;;1.48;0.60;;;3.30;99.90;;;;;;5366788;26;20484;-75
2024/04/18 03:25:56;;;;;;;4.95;0.60;;;3.30;99.90;;;;;;5395813;26;20476;-75
2024/04/18 03:28:22;;;;;;;1.60;0.70;;;3.30;99.90;;;;;;5367348;26;20033;-75
2024/04/18 03:30:49;;;;;;;2.60;0.50;;;3.20;99.90;;;;;;5382610;26;20016;-75
2024/04/18 03:33:15;;;;;;;2.00;0.57;;;3.20;99.90;;;;;;5441057;26;20441;-75
2024/04/18 03:35:42;;;;;;;4.30;0.83;;;3.20;99.90;;;;;;5428905;26;20445;-75
2024/04/18 03:38:15;;;;;;;4.15;0.70;;;3.20;99.90;;;;;;5393890;26;20006;-75
2024/04/18 03:40:41;;;;;;;2.63;0.60;;;3.10;99.90;;;;;;5422575;26;20948;-75
2024/04/18 03:43:08;;;;;;;1.58;0.60;;;3.10;99.90;;;;;;5363811;26;20012;-75
2024/04/18 03:45:34;;;;;;;2.28;0.73;;;3.10;99.90;;;;;;5422379;26;20471;-75
2024/04/18 03:48:19;;;;;;;4.38;0.75;;;3.00;99.90;;;;;;5426571;26;20020;-75
2024/04/18 03:50:45;;;;;;;4.55;0.90;;;3.00;99.90;;;;;;5408205;26;20349;-75
2024/04/18 03:53:19;;;;;;;7.13;0.80;;;3.00;99.90;;;;;;5439422;26;19998;-75
2024/04/18 03:55:46;;;;;;;5.57;1.03;;;2.90;99.90;;;;;;5397900;26;20005;-75
2024/04/18 03:58:12;;;;;;;2.50;0.80;;;2.90;99.90;;;;;;5423060;26;20001;-74
2024/04/18 04:00:48;;;;;;;3.03;0.80;;;2.90;99.90;;;;;;5399949;26;20006;-75
2024/04/18 04:03:15;;;;;;;2.97;0.70;;;2.90;99.90;;;;;;5392372;26;20413;-76
2024/04/18 04:05:41;;;;;;;2.53;0.60;;;2.90;99.90;;;;;;5420210;26;20037;-76
2024/04/18 04:08:09;;;;;;;3.65;0.90;;;2.80;99.90;;;;;;5366631;26;20006;-75
2024/04/18 04:10:41;;;;;;;2.60;0.88;;;2.80;99.90;;;;;;5410276;26;20442;-76
2024/04/18 04:13:08;;;;;;;2.67;0.90;;;2.80;99.90;;;;;;5383617;26;19999;-75
2024/04/18 04:15:41;;;;;;;;;;;2.80;99.90;;;;;;5400813;26;20471;-77
2024/04/18 04:18:07;;;;;;;4.27;1.20;;;2.80;99.90;;;;;;5477867;25;20386;-75
2024/04/18 04:20:44;;;;;;;1.97;0.90;;;2.70;99.90;;;;;;5398280;26;20025;-76
2024/04/18 04:23:10;;;;;;;1.65;0.70;;;2.70;99.90;;;;;;5394625;26;20002;-76
2024/04/18 04:25:55;;;;;;;2.80;0.90;;;2.70;99.90;;;;;;5392782;26;20041;-75
2024/04/18 04:28:22;;;;;;;3.50;0.97;;;2.70;99.90;;;;;;5429238;26;20010;-75
2024/04/18 04:30:48;;;;;;;2.70;0.60;;;2.60;99.90;;;;;;5408573;26;20453;-77
2024/04/18 04:33:15;;;;;;;4.23;1.17;;;2.70;99.90;;;;;;5437366;26;20002;-76
2024/04/18 04:35:41;;;;;;;3.03;0.90;;;2.60;99.90;;;;;;5417714;26;20010;-76
2024/04/18 04:38:08;;;;;;;3.50;0.70;;;2.70;99.90;;;;;;5454947;25;19998;-76
2024/04/18 04:40:34;;;;;;;1.65;0.70;;;2.60;99.90;;;;;;5424271;26;19995;-77
2024/04/18 04:43:00;;;;;;;2.10;1.00;;;2.60;99.90;;;;;;5426203;26;20342;-75
2024/04/18 04:45:27;;;;;;;3.27;1.10;;;2.60;99.90;;;;;;5449685;26;20020;-76
2024/04/18 04:48:06;;;;;;;4.77;0.80;;;2.60;99.90;;;;;;5441270;26;20836;-76
2024/04/18 04:50:32;;;;;;;2.67;0.80;;;2.60;99.90;;;;;;5410466;26;19998;-76
2024/04/18 04:53:11;;;;;;;4.90;0.90;;;2.60;99.90;;;;;;5373051;26;19998;-75
2024/04/18 04:55:56;;;;;;;4.13;0.90;;;2.70;99.90;;;;;;5395378;26;20312;-75
2024/04/18 04:58:23;;;;;;;2.63;0.57;;;2.70;99.90;;;;;;5391677;26;20010;-76
2024/04/18 05:00:50;;;;;;;2.43;0.70;;;2.70;99.90;;;;;;5390412;26;19999;-76
2024/04/18 05:03:35;;;;;;;3.58;0.70;;;2.70;99.90;;;;;;5398184;26;20016;-77
2024/04/18 05:06:25;;;;;;;4.73;1.30;;;2.80;99.90;;;;;;5404830;26;19998;-76
2024/04/18 05:09:11;;;;;;;3.10;1.03;;;2.80;99.90;;;;;;5461478;25;20028;-77
2024/04/18 05:11:37;;;;;;;3.70;0.60;;;2.90;99.90;;;;;;5431081;26;20014;-77
2024/04/18 05:14:23;;;;;;;4.13;0.83;;;2.90;99.90;;;;;;5423144;26;19998;-76
2024/04/18 05:16:50;;;;;;;4.60;1.17;;;3.00;99.90;;;;;;5397677;26;20010;-76
2024/04/18 05:19:19;;;;;;;2.92;0.60;;;3.10;99.90;;;;;;5389382;26;20012;-76
2024/04/18 05:21:46;;;;;;;5.47;0.70;;;3.20;99.90;;;;;;5362605;26;20460;-75
2024/04/18 05:24:31;;;;;;;4.90;0.90;;;3.20;99.90;;;;;;5423806;26;20002;-76
2024/04/18 05:26:57;;;;;;;5.83;0.67;;;3.20;99.90;;;;;;5407610;26;20013;-76
2024/04/18 05:32:08;;;;;;;3.65;0.85;;;3.40;99.90;;;;;;5399514;26;20370;-77
2024/04/18 05:34:35;;;;;;;5.38;1.10;;;3.40;99.90;;;;;;5392813;26;20465;-76
2024/04/18 05:37:01;;;;;;;2.47;1.00;;;3.50;99.90;;;;;;5423377;26;20005;-75
2024/04/18 05:39:28;;;;;;;2.60;0.80;;;3.50;99.90;;;;;;5393660;26;20012;-75
2024/04/18 05:41:54;;;;;;;3.80;1.13;;;3.60;99.90;;;;;;5391972;26;20017;-75
2024/04/18 05:44:38;;;;;;;1.60;0.70;;;3.70;99.90;;;;;;5367582;26;20561;-75
2024/04/18 05:47:05;;;;;;;2.28;0.70;;;3.80;99.90;;;;;;5435191;26;20322;-76
2024/04/18 05:49:32;;;;;;;2.43;0.93;;;3.80;99.90;;;;;;5438295;26;20345;-76
2024/04/18 05:51:58;;;;;;;2.67;0.90;;;3.90;99.90;;;;;;5436391;26;20406;-76
2024/04/18 05:54:31;;;;;;;4.07;1.00;;;4.00;99.90;;;;;;5394203;26;20445;-76
2024/04/18 05:57:05;;;;;;;2.97;1.50;;;4.20;99.90;;;;;;5394269;26;20006;-76
2024/04/18 05:59:51;;;;;;;5.32;1.45;;;4.40;99.90;;;;;;5423951;26;20014;-76
2024/04/18 06:02:18;;;;;;;3.88;1.08;;;4.60;99.90;;;;;;5417982;26;20024;-76
2024/04/18 06:04:44;;;;;;;3.97;1.23;;;4.70;99.90;;;;;;5420356;26;20457;-76
2024/04/18 06:07:29;;;;;;;4.95;1.67;;;4.90;99.90;;;;;;5412449;26;20352;-76
2024/04/18 06:09:57;;;;;;;3.58;0.98;;;5.20;99.90;;;;;;5438781;26;20014;-76
2024/04/18 06:12:23;;;;;;;3.25;1.48;;;5.40;99.90;;;;;;5394800;26;20020;-76
2024/04/18 06:14:50;;;;;;;3.50;1.05;;;5.60;99.90;;;;;;5417830;26;20010;-76
2024/04/18 06:17:16;;;;;;;3.72;1.05;;;5.80;99.90;;;;;;5422005;26;19994;-76
2024/04/18 06:19:49;;;;;;;;;;;6.00;99.90;;;;;;5399078;26;20612;-75
2024/04/18 06:22:28;;;;;;;4.57;1.45;;;6.10;99.90;;;;;;5397037;26;19931;-76
2024/04/18 06:25:16;;;;;;;4.95;1.20;;;6.30;99.90;;;;;;5429184;26;20529;-74
2024/04/18 06:27:43;;;;;;;3.08;1.05;;;6.50;99.90;;;;;;5409729;26;19998;-76
2024/04/18 06:30:10;;;;;;;3.70;1.10;;;6.60;99.90;;;;;;5435132;26;20421;-75
2024/04/18 06:32:37;;;;;;;4.60;1.35;;;6.70;99.90;;;;;;5395172;26;20016;-76
2024/04/18 06:35:04;;;;;;;3.83;0.88;;;6.90;99.90;;;;;;5419501;26;20381;-76
2024/04/18 06:37:31;;;;;;;3.38;0.88;;;7.00;99.90;;;;;;5426417;26;21323;-76
2024/04/18 06:39:58;;;;;;;2.70;0.85;;;7.10;99.90;;;;;;5421861;26;19998;-76
2024/04/18 06:42:25;;;;;;;3.28;0.80;;;7.20;99.90;;;;;;5418090;26;20017;-76
2024/04/18 06:44:51;;;;;;;4.13;1.30;;;7.40;99.90;;;;;;5426925;26;22957;-76
2024/04/18 06:47:17;;;;;;;2.85;1.05;;;7.60;99.90;;;;;;5436137;26;20024;-76
2024/04/18 06:50:02;;;;;;;2.17;0.80;;;7.80;99.90;;;;;;5430575;26;20016;-76
2024/04/18 06:52:31;;;;;;;4.72;0.80;;;8.20;99.90;;;;;;5392083;26;19998;-76
2024/04/18 06:54:57;;;;;;;3.10;0.70;;;8.50;99.90;;;;;;5447324;25;20010;-75
2024/04/18 06:57:41;;;;;;;2.25;0.60;;;8.70;99.90;;;;;;5420329;26;20361;-74
2024/04/18 07:00:10;;;;;;;3.97;0.90;;;8.80;99.90;;;;;;5416277;26;20002;-74
2024/04/18 07:02:37;;;;;;;2.58;0.70;;;8.90;99.90;;;;;;5370077;26;20002;-75
2024/04/18 07:05:22;;;;;;;4.50;1.00;;;9.00;99.90;;;;;;5414504;26;20001;-75
2024/04/18 07:07:52;;;;;;;2.58;1.02;;;9.00;99.90;;;;;;5406673;26;20118;-75
2024/04/18 07:10:37;;;;;;;1.80;0.32;;;9.10;99.90;;;;;;5370099;26;20460;-75
2024/04/18 07:13:22;;;;;;;3.13;0.60;;;9.10;99.90;;;;;;5425189;26;20009;-75
2024/04/18 07:15:56;;;;;;;2.80;0.40;;;9.30;99.90;;;;;;5422193;26;20009;-76
2024/04/18 07:18:41;;;;;;;3.80;0.50;;;9.40;99.90;;;;;;5425721;26;20013;-75
2024/04/18 07:21:07;;;;;;;2.03;0.40;;;9.40;99.90;;;;;;5428151;26;20010;-76
2024/04/18 07:23:36;;;;;;;2.00;0.30;;;9.50;99.90;;;;;;5386551;26;19999;-77
2024/04/18 07:26:03;;;;;;;3.47;0.65;;;9.60;99.90;;;;;;5415320;26;19998;-79
2024/04/18 07:28:30;;;;;;;5.90;1.05;;;9.60;99.90;;;;;;5431014;26;20364;-77
2024/04/18 07:30:57;;;;;;;3.55;0.90;;;9.70;99.90;;;;;;5399268;26;20014;-77
2024/04/18 07:33:23;;;;;;;1.65;0.60;;;9.80;99.90;;;;;;5425627;26;20002;-77
2024/04/18 07:35:58;;;;;;;4.22;1.50;;;9.90;99.90;;;;;;5425004;26;20006;-78
2024/04/18 07:38:28;;;;;;;3.08;0.70;;;9.90;99.90;;;;;;5420775;26;20453;-79
2024/04/18 07:40:55;;;;;;;2.85;0.50;;;10.00;99.90;;;;;;5407357;26;20017;-77
2024/04/18 07:43:21;;;;;;;3.90;0.40;;;10.10;99.90;;;;;;5384204;26;20016;-77
2024/04/18 07:45:48;;;;;;;3.10;0.40;;;10.10;99.90;;;;;;5429196;26;20010;-80
2024/04/18 07:48:14;;;;;;;3.95;0.40;;;10.10;99.90;;;;;;5396358;26;20017;-76
2024/04/18 07:50:41;;;;;;;1.23;0.30;;;10.00;99.90;;;;;;5484980;25;20057;-76
2024/04/18 07:53:07;;;;;;;1.95;0.30;;;10.10;99.90;;;;;;5392206;26;20076;-77
2024/04/18 07:55:34;;;;;;;2.30;0.43;;;10.10;99.90;;;;;;5367787;26;20020;-77
2024/04/18 07:58:00;;;;;;;2.25;0.40;;;10.10;99.90;;;;;;5402137;26;20016;-76
2024/04/18 08:00:26;;;;;;;2.42;0.50;;;10.10;99.90;;;;;;5410446;26;20012;-77
2024/04/18 08:02:53;;;;;;;3.20;0.30;;;10.30;99.90;;;;;;5432172;26;19994;-76
2024/04/18 08:05:19;;;;;;;2.50;0.25;;;10.40;99.90;;;;;;5393470;26;20043;-77
2024/04/18 08:07:46;;;;;;;1.77;0.30;;;10.40;99.90;;;;;;5424308;26;20437;-77
2024/04/18 08:10:12;;;;;;;3.60;0.40;;;10.40;99.90;;;;;;5396262;26;20603;-76
2024/04/18 08:12:38;;;;;;;2.08;0.40;;;10.40;99.90;;;;;;5424823;26;20440;-77
2024/04/18 08:15:05;;;;;;;1.77;0.40;;;10.40;99.90;;;;;;5399254;26;20010;-79
2024/04/18 08:17:33;;;;;;;2.53;0.45;;;10.30;99.90;;;;;;5381167;26;20029;-74
2024/04/18 08:20:00;;;;;;;2.72;0.70;;;10.20;99.90;;;;;;5407576;26;20008;-75
2024/04/18 08:22:26;;;;;;;3.50;0.52;;;10.20;99.90;;;;;;5427730;26;20365;-75
2024/04/18 08:24:53;;;;;;;1.80;0.40;;;10.30;99.90;;;;;;5391577;26;20806;-75
2024/04/18 08:27:19;;;;;;;2.03;0.40;;;10.40;99.90;;;;;;5422347;26;20006;-75
2024/04/18 08:29:45;;;;;;;4.72;0.43;;;10.60;99.90;;;;;;5421544;26;20083;-76
2024/04/18 08:32:12;;;;;;;3.33;0.40;;;10.80;99.90;;;;;;5367240;26;20024;-75
2024/04/18 08:34:38;;;;;;;2.22;0.50;;;11.10;99.90;;;;;;5406418;26;20349;-75
2024/04/18 08:37:04;;;;;;;3.15;0.60;;;11.40;99.90;;;;;;5411604;26;22906;-76
2024/04/18 08:39:31;;;;;;;2.95;0.30;;;11.60;99.90;;;;;;5434016;26;20020;-74
2024/04/18 08:41:59;;;;;;;3.25;0.40;;;11.80;99.90;;;;;;5444812;25;20014;-75
2024/04/18 08:44:25;;;;;;;3.22;0.32;;;11.80;99.90;;;;;;5391696;26;20012;-75
2024/04/18 08:46:52;;;;;;;0.93;0.20;;;11.80;99.90;;;;;;5362409;26;20009;-75
2024/04/18 08:49:19;;;;;;;1.55;0.30;;;11.80;99.90;;;;;;5394596;26;20016;-74
2024/04/18 08:51:47;;;;;;;2.25;0.65;;;11.90;99.90;;;;;;5423718;26;20002;-74
2024/04/18 08:54:14;;;;;;;2.30;0.30;;;11.90;99.90;;;;;;5405538;26;20002;-74
2024/04/18 08:56:47;;;;;;;1.05;0.22;;;11.90;99.90;;;;;;5489120;25;20014;-74
2024/04/18 08:59:14;;;;;;;2.83;0.30;;;12.00;99.90;;;;;;5433099;26;20006;-74
2024/04/18 09:01:42;;;;;;;1.65;0.20;;;12.10;99.90;;;;;;5410058;26;20006;-74
2024/04/18 09:04:09;;;;;;;0.93;0.20;;;12.30;99.90;;;;;;5449756;26;20555;-75
2024/04/18 09:06:35;;;;;;;1.83;0.28;;;12.50;99.90;;;;;;5389801;26;20010;-74
2024/04/18 09:09:07;;;;;;;2.15;0.20;;;12.60;99.90;;;;;;5417205;26;19998;-74
2024/04/18 09:11:34;;;;;;;2.10;0.25;;;12.80;99.90;;;;;;5400982;26;20010;-75
2024/04/18 09:14:01;;;;;;;0.90;0.20;;;12.80;99.90;;;;;;5398735;26;20416;-75
2024/04/18 09:16:28;;;;;;;1.48;0.20;;;12.80;99.90;;;;;;5435387;26;20006;-76
2024/04/18 09:18:56;;;;;;;1.92;0.22;;;12.70;99.90;;;;;;5407153;26;20344;-74
2024/04/18 09:21:28;;;;;;;1.98;0.17;;;12.60;99.90;;;;;;5425529;26;20006;-75
2024/04/18 09:23:57;;;;;;;1.95;0.20;;;12.40;99.90;;;;;;5421385;26;20010;-75
2024/04/18 09:26:29;;;;;;;0.82;0.20;;;12.40;99.90;;;;;;5450190;26;20020;-76
2024/04/18 09:28:57;;;;;;;2.40;0.28;;;12.50;99.90;;;;;;5423267;26;20010;-75
2024/04/18 09:31:27;;;;;;;4.57;0.20;;;12.60;99.90;;;;;;5426482;26;20010;-75
2024/04/18 09:33:55;;;;;;;1.38;0.10;;;12.50;99.90;;;;;;5437895;26;20346;-76
2024/04/18 09:36:22;;;;;;;2.63;0.17;;;12.50;99.90;;;;;;5401542;26;22082;-75
2024/04/18 09:38:49;;;;;;;1.20;0.20;;;12.60;99.90;;;;;;5422626;26;20008;-76
2024/04/18 09:41:25;;;;;;;0.65;0.20;;;12.70;99.90;;;;;;5391801;26;20020;-76
2024/04/18 09:44:15;;;;;;;1.27;0.10;;;12.90;99.90;;;;;;5367401;26;20017;-76
2024/04/18 09:46:43;;;;;;;2.25;0.45;;;13.30;99.90;;;;;;5442891;26;20012;-76
2024/04/18 09:49:10;;;;;;;2.20;0.20;;;13.60;99.90;;;;;;5433219;26;20020;-76
2024/04/18 09:51:38;;;;;;;1.10;0.22;;;13.80;99.90;;;;;;5383519;26;20032;-76
2024/04/18 09:54:06;;;;;;;0.60;0.10;;;14.00;99.90;;;;;;5427313;26;20002;-76
2024/04/18 09:56:34;;;;;;;3.72;0.30;;;14.30;99.90;;;;;;5423706;26;20002;-76
2024/04/18 09:59:02;;;;;;;2.35;0.20;;;14.40;99.90;;;;;;5363579;26;20490;-76
2024/04/18 10:01:29;;;;;;;1.60;0.20;;;14.50;99.90;;;;;;5366281;26;20006;-76
2024/04/18 10:03:56;;;;;;;1.58;0.30;;;14.30;99.90;;;;;;5421827;26;20020;-76
2024/04/18 10:06:30;;;;;;;1.65;0.20;;;14.10;99.90;;;;;;5397062;26;20002;-76
2024/04/18 10:08:57;;;;;;;1.55;0.30;;;13.80;99.90;;;;;;5410076;26;20006;-76
2024/04/18 10:11:25;;;;;;;2.25;0.30;;;13.60;99.90;;;;;;5405339;26;20439;-76
2024/04/18 10:13:51;;;;;;;1.17;0.30;;;13.40;99.90;;;;;;5444994;25;20016;-76
2024/04/18 10:16:19;;;;;;;2.08;0.20;;;13.20;99.90;;;;;;5419200;26;20002;-76
2024/04/18 10:18:46;;;;;;;0.90;0.20;;;13.20;99.90;;;;;;5393978;26;20478;-76
2024/04/18 10:21:13;;;;;;;1.10;0.20;;;13.30;99.90;;;;;;5398077;26;21190;-76
2024/04/18 10:23:47;;;;;;;2.42;0.20;;;13.60;99.90;;;;;;5396881;26;19994;-76
2024/04/18 10:26:14;;;;;;;2.83;0.30;;;14.10;99.90;;;;;;5380134;26;20006;-76
2024/04/18 10:28:41;;;;;;;1.42;0.20;;;14.50;99.90;;;;;;5404338;26;20006;-76
2024/04/18 10:31:08;;;;;;;2.60;0.10;;;15.00;99.90;;;;;;5422591;26;20469;-77
2024/04/18 10:33:35;;;;;;;1.95;0.20;;;15.60;99.90;;;;;;5422745;26;20017;-77
2024/04/18 10:36:01;;;;;;;0.73;0.10;;;16.00;99.90;;;;;;5419938;26;19998;-76
2024/04/18 10:38:28;;;;;;;2.45;0.20;;;16.40;99.90;;;;;;5419680;26;20011;-76
2024/04/18 10:41:21;;;;;;;1.05;0.20;;;16.80;99.90;;;;;;5395253;26;20002;-74
2024/04/18 10:43:48;;;;;;;;;;;17.10;99.90;;;;;;5401924;26;22684;-75
2024/04/18 10:46:15;;;;;;;0.75;0.20;;;16.80;99.40;;;;;;5433151;26;20375;-76
2024/04/18 10:48:42;;;;;;;2.15;0.40;;;16.40;99.10;;;;;;5395008;26;20095;-76
2024/04/18 10:51:08;;;;;;;11.27;4.00;;;16.00;99.40;;;;;;5416759;26;20009;-77
2024/04/18 10:53:37;;;;;;;2.92;0.85;;;15.60;99.80;;;;;;5392998;26;20009;-77
2024/04/18 10:56:04;;;;;;;2.60;0.60;;;15.30;99.90;;;;;;5420920;26;20020;-77
2024/04/18 10:58:31;;;;;;;2.40;0.55;;;15.10;99.90;;;;;;5411355;26;20608;-76
2024/04/18 11:00:59;;;;;;;2.28;0.50;;;15.10;99.90;;;;;;5429530;26;20007;-76
2024/04/18 11:03:27;;;;;;;3.30;0.40;;;15.40;99.90;;;;;;5406391;26;20020;-77
2024/04/18 11:05:55;;;;;;;2.00;0.50;;;16.10;99.90;;;;;;5432049;26;20002;-77
2024/04/18 11:08:22;;;;;;;1.38;0.32;;;17.00;99.20;;;;;;5364303;26;20003;-77
2024/04/18 11:10:48;;;;;;;2.38;0.20;;;17.80;97.80;;;;;;5392811;26;20004;-77
2024/04/18 11:13:15;;;;;;;0.82;0.20;;;18.20;96.50;;;;;;5424100;26;20020;-77
2024/04/18 11:15:42;;;;;;;2.55;0.22;;;17.90;95.60;;;;;;5369141;26;20669;-76
2024/04/18 11:18:08;;;;;;;2.13;0.20;;;17.50;95.20;;;;;;5416539;26;20003;-76
2024/04/18 11:20:35;;;;;;;2.60;0.30;;;16.90;95.20;;;;;;5430532;26;20352;-76
2024/04/18 11:23:06;;;;;;;1.88;0.20;;;16.40;95.50;;;;;;5437846;26;20564;-76
2024/04/18 11:25:32;;;;;;;1.20;0.30;;;15.90;96.00;;;;;;5427583;26;20008;-76
2024/04/18 11:28:09;;;;;;;2.53;0.20;;;15.60;96.20;;;;;;5419275;26;20009;-77
2024/04/18 11:30:41;;;;;;;0.95;0.10;;;15.30;96.40;;;;;;5422259;26;20009;-76
2024/04/18 11:33:11;;;;;;;1.05;0.20;;;15.10;96.60;;;;;;5388758;26;20004;-76
2024/04/18 11:35:37;;;;;;;0.90;0.20;;;15.30;96.70;;;;;;5361592;26;20010;-77
2024/04/18 11:38:15;;;;;;;1.38;0.10;;;15.60;96.70;;;;;;5390695;26;19998;-76
2024/04/18 11:40:42;;;;;;;1.80;0.20;;;16.00;97.10;;;;;;5437293;26;20010;-76
2024/04/18 11:43:09;;;;;;;2.08;0.20;;;16.90;96.60;;;;;;5379051;26;20714;-77
2024/04/18 11:45:36;;;;;;;0.98;0.20;;;17.90;95.00;;;;;;5389895;26;20023;-76
2024/04/18 11:48:04;;;;;;;1.05;0.20;;;18.90;94.20;;;;;;5386489;26;20352;-76
2024/04/18 11:50:30;;;;;;;1.38;0.43;;;19.80;93.00;;;;;;5455969;25;20464;-76
2024/04/18 11:52:56;;;;;;;2.85;0.30;;;20.30;91.80;;;;;;5424107;26;19998;-76
2024/04/18 11:55:29;;;;;;;1.33;0.20;;;21.10;91.30;;;;;;5421830;26;20016;-76
2024/04/18 11:57:55;;;;;;;3.83;0.20;;;21.90;89.00;;;;;;5439372;26;20013;-76
2024/04/18 12:00:34;;;;;;;2.60;0.20;;;22.40;86.20;;;;;;5402820;26;20006;-75
2024/04/18 12:03:06;;;;;;;2.22;0.30;;;22.50;84.30;;;;;;5424167;26;20404;-76
2024/04/18 12:05:37;;;;;;;1.35;0.22;;;22.80;80.80;;;;;;5390026;26;20548;-77
2024/04/18 12:08:05;;;;;;;2.05;0.30;;;22.60;78.90;;;;;;5392480;26;20002;-77
2024/04/18 12:10:32;;;;;;;1.80;0.25;;;22.00;77.50;;;;;;5478558;25;20341;-76
2024/04/18 12:13:04;;;;;;;2.10;0.30;;;21.60;76.50;;;;;;5408075;26;20014;-76
2024/04/18 12:15:33;;;;;;;3.22;0.25;;;20.90;78.20;;;;;;5406092;26;19998;-76
2024/04/18 12:17:59;;;;;;;1.63;0.22;;;21.00;78.70;;;;;;5397774;26;20002;-77
2024/04/18 12:20:26;;;;;;;2.20;0.20;;;21.50;75.60;;;;;;5365351;26;20002;-77
2024/04/18 12:22:52;;;;;;;2.38;0.30;;;22.20;75.20;;;;;;5362068;26;19998;-76
2024/04/18 12:25:19;;;;;;;2.47;0.30;;;22.70;72.30;;;;;;5424854;26;20002;-76
2024/04/18 12:27:46;;;;;;;2.55;0.30;;;23.00;69.60;;;;;;5395733;26;20460;-77
2024/04/18 12:30:32;;;;;;;1.60;0.20;;;23.40;68.80;;;;;;5406264;26;20008;-77
2024/04/18 12:33:20;;;;;;;2.35;0.20;;;23.80;68.20;;;;;;5413730;26;20002;-76
2024/04/18 12:35:47;;;;;;;2.00;0.20;;;24.40;66.20;;;;;;5370632;26;20014;-77
2024/04/18 12:38:13;;;;;;;1.58;0.30;;;24.70;64.40;;;;;;5366348;26;20005;-77
2024/04/18 12:40:44;;;;;;;1.77;0.30;;;24.90;61.70;;;;;;5392361;26;21850;-76
2024/04/18 12:43:11;;;;;;;0.95;0.20;;;24.50;60.00;;;;;;5395245;26;20369;-76
2024/04/18 12:46:00;;;;;;;1.52;0.20;;;23.60;60.10;;;;;;5391290;26;20484;-76
2024/04/18 12:48:45;;;;;;;1.58;0.20;;;22.10;60.80;;;;;;5416973;26;20436;-76
2024/04/18 12:51:11;;;;;;;1.73;0.20;;;21.40;62.80;;;;;;5382808;26;19998;-76
2024/04/18 12:53:41;;;;;;;1.02;0.20;;;21.00;62.60;;;;;;5396751;26;20013;-76
2024/04/18 12:56:08;;;;;;;2.28;0.30;;;20.40;62.70;;;;;;5365345;26;19994;-77
2024/04/18 12:58:34;;;;;;;2.15;0.30;;;20.80;63.80;;;;;;5369697;26;20560;-76
2024/04/18 13:01:11;;;;;;;1.58;0.25;;;22.00;63.90;;;;;;5424828;26;20602;-76
2024/04/18 13:03:41;;;;;;;1.77;0.30;;;23.50;63.40;;;;;;5450098;26;20029;-76
2024/04/18 13:06:27;;;;;;;1.67;0.22;;;24.30;61.60;;;;;;5430432;26;20012;-76
2024/04/18 13:08:56;;;;;;;1.73;0.40;;;24.00;61.10;;;;;;5380670;26;20338;-77
2024/04/18 13:11:40;;;;;;;2.03;0.30;;;23.90;61.10;;;;;;5400852;26;20006;-77
2024/04/18 13:14:07;;;;;;;0.95;0.30;;;23.60;60.40;;;;;;5424240;26;20014;-77